Time;durP1;ratioP1;P1;durP2;ratioP2;P2;SDS_P1;SDS_P2;PMS_P1;PMS_P2;Temp;Humidity;BMP_temperature;BMP_pressure;BME280_temperature;BME280_humidity;BME280_pressure;Samples;Min_cycle;Max_cycle;Signal;HPM_P1;HPM_P2
2021/07/19 00:01:41;;;;;;;11.55;6.45;;;16.60;92.50;;;;;;5023769;28;20498;-48
2021/07/19 00:04:06;;;;;;;11.88;6.68;;;16.60;92.50;;;;;;5008673;28;20034;-50
2021/07/19 00:06:32;;;;;;;12.40;6.45;;;16.60;92.50;;;;;;4995132;28;20046;-49
2021/07/19 00:08:59;;;;;;;12.68;6.43;;;16.60;92.50;;;;;;5011950;28;20045;-49
2021/07/19 00:11:25;;;;;;;9.68;6.13;;;16.60;92.60;;;;;;5015671;28;20042;-54
2021/07/19 00:13:51;;;;;;;13.68;6.68;;;16.50;92.60;;;;;;5017076;28;20503;-53
2021/07/19 00:16:17;;;;;;;13.88;6.72;;;16.50;92.60;;;;;;5014959;28;20049;-51
2021/07/19 00:18:43;;;;;;;12.35;6.95;;;16.50;92.70;;;;;;5009595;28;20052;-53
2021/07/19 00:21:10;;;;;;;11.45;6.80;;;16.40;92.70;;;;;;4976591;28;20057;-53
2021/07/19 00:23:36;;;;;;;12.68;7.10;;;16.40;92.70;;;;;;4961876;28;20077;-54
2021/07/19 00:26:02;;;;;;;13.43;7.43;;;16.40;92.80;;;;;;4993322;28;20204;-50
2021/07/19 00:28:29;;;;;;;12.00;7.20;;;16.40;93.00;;;;;;5011925;28;20088;-51
2021/07/19 00:30:56;;;;;;;12.38;7.55;;;16.40;92.80;;;;;;4996062;28;20129;-54
2021/07/19 00:33:21;;;;;;;13.15;7.22;;;16.40;92.90;;;;;;5014571;28;20121;-50
2021/07/19 00:35:47;;;;;;;11.60;7.22;;;16.40;93.00;;;;;;5012549;28;20037;-48
2021/07/19 00:38:13;;;;;;;12.68;7.38;;;16.40;92.90;;;;;;5010589;28;20053;-52
2021/07/19 00:40:38;;;;;;;11.38;6.93;;;16.40;93.00;;;;;;5012103;28;20038;-50
2021/07/19 00:43:05;;;;;;;12.73;7.20;;;16.40;92.90;;;;;;5010704;28;20486;-52
2021/07/19 00:45:32;;;;;;;15.35;7.68;;;16.40;93.00;;;;;;5010024;28;20099;-48
2021/07/19 00:48:02;;;;;;;13.38;7.20;;;16.40;93.10;;;;;;5011788;28;20076;-53
2021/07/19 00:50:32;;;;;;;12.05;7.18;;;16.40;93.10;;;;;;5011684;28;20100;-52
2021/07/19 00:52:58;;;;;;;16.38;7.63;;;16.40;93.20;;;;;;5010696;28;20030;-51
2021/07/19 00:55:31;;;;;;;10.85;7.13;;;16.40;93.10;;;;;;5011591;28;20041;-51
2021/07/19 00:57:57;;;;;;;;;;;16.40;93.10;;;;;;5011262;28;20470;-48
2021/07/19 01:00:23;;;;;;;12.95;7.55;;;16.40;93.40;;;;;;5012955;28;19917;-51
2021/07/19 01:02:50;;;;;;;12.13;7.70;;;16.40;93.20;;;;;;5009463;28;20488;-52
2021/07/19 01:05:17;;;;;;;14.10;7.80;;;16.40;93.10;;;;;;4999309;28;20125;-50
2021/07/19 01:07:43;;;;;;;13.95;7.00;;;16.50;93.10;;;;;;4988891;28;20042;-53
2021/07/19 01:10:14;;;;;;;16.65;7.28;;;16.40;93.10;;;;;;5008423;28;20045;-48
2021/07/19 01:12:46;;;;;;;16.27;7.65;;;16.50;93.10;;;;;;5011571;28;20129;-51
2021/07/19 01:15:12;;;;;;;13.48;7.30;;;16.50;93.20;;;;;;5007341;28;20076;-50
2021/07/19 01:17:39;;;;;;;15.15;7.63;;;16.50;93.10;;;;;;5000930;28;20038;-51
2021/07/19 01:20:05;;;;;;;10.93;6.50;;;16.50;93.20;;;;;;5011279;28;20319;-49
2021/07/19 01:22:34;;;;;;;13.85;7.53;;;16.50;93.20;;;;;;5009424;28;20529;-52
2021/07/19 01:25:11;;;;;;;13.65;7.03;;;16.50;93.10;;;;;;5010861;28;20042;-51
2021/07/19 01:27:53;;;;;;;14.13;7.43;;;16.50;93.20;;;;;;5003643;28;20404;-50
2021/07/19 01:30:19;;;;;;;14.57;7.82;;;16.50;93.20;;;;;;5010817;28;20046;-53
2021/07/19 01:32:47;;;;;;;11.65;7.53;;;16.50;93.20;;;;;;5011199;28;20041;-50
2021/07/19 01:35:14;;;;;;;14.63;7.80;;;16.50;93.20;;;;;;5009638;28;20068;-53
2021/07/19 01:37:44;;;;;;;14.85;7.63;;;16.50;93.30;;;;;;5010589;28;20157;-50
2021/07/19 01:40:10;;;;;;;13.43;7.78;;;16.50;93.30;;;;;;5001423;28;20088;-54
2021/07/19 01:42:37;;;;;;;12.90;7.15;;;16.50;93.30;;;;;;4998466;28;20034;-50
2021/07/19 01:45:08;;;;;;;15.27;7.90;;;16.40;93.40;;;;;;5010193;28;20034;-52
2021/07/19 01:47:35;;;;;;;13.38;7.50;;;16.50;93.40;;;;;;5009315;28;20490;-53
2021/07/19 01:50:03;;;;;;;14.40;7.35;;;16.40;93.50;;;;;;5011479;28;20068;-48
2021/07/19 01:52:29;;;;;;;13.65;7.32;;;16.50;93.50;;;;;;5011238;28;20045;-48
2021/07/19 01:54:55;;;;;;;14.98;8.65;;;16.50;93.50;;;;;;5015409;28;20422;-48
2021/07/19 01:57:22;;;;;;;14.40;7.47;;;16.40;93.50;;;;;;5010997;28;20080;-52
2021/07/19 01:59:49;;;;;;;13.00;7.63;;;16.40;93.60;;;;;;5022338;28;20514;-51
2021/07/19 02:02:20;;;;;;;16.20;8.20;;;16.40;93.60;;;;;;5012194;28;20117;-49
2021/07/19 02:04:46;;;;;;;15.57;8.27;;;16.40;93.70;;;;;;5006237;28;20399;-48
2021/07/19 02:07:13;;;;;;;14.15;8.23;;;16.40;93.70;;;;;;5012243;28;20037;-52
2021/07/19 02:09:40;;;;;;;15.07;7.90;;;16.40;93.70;;;;;;5015586;28;20049;-49
2021/07/19 02:12:08;;;;;;;15.27;8.70;;;16.40;93.70;;;;;;5013015;28;20121;-54
2021/07/19 02:14:38;;;;;;;14.73;8.15;;;16.40;93.70;;;;;;5010128;28;20046;-53
2021/07/19 02:17:05;;;;;;;13.40;7.55;;;16.40;93.70;;;;;;5010073;28;20510;-52
2021/07/19 02:19:31;;;;;;;14.55;8.30;;;16.40;94.00;;;;;;5016659;28;20127;-51
2021/07/19 02:21:56;;;;;;;15.60;7.93;;;16.40;93.80;;;;;;5018359;28;20070;-52
2021/07/19 02:24:26;;;;;;;17.00;8.68;;;16.40;93.80;;;;;;5002496;28;20054;-52
2021/07/19 02:26:55;;;;;;;18.15;8.82;;;16.40;93.90;;;;;;4997117;28;20056;-51
2021/07/19 02:29:22;;;;;;;17.83;8.52;;;16.40;93.90;;;;;;5012047;28;20050;-51
2021/07/19 02:31:50;;;;;;;15.73;8.95;;;16.40;93.90;;;;;;5009235;28;20057;-49
2021/07/19 02:34:20;;;;;;;14.52;7.82;;;16.40;93.90;;;;;;5024113;28;20030;-50
2021/07/19 02:36:47;;;;;;;19.05;8.52;;;16.40;93.90;;;;;;5010681;28;20046;-52
2021/07/19 02:39:15;;;;;;;13.43;8.38;;;16.40;93.90;;;;;;5006882;28;20052;-48
2021/07/19 02:41:43;;;;;;;16.13;8.55;;;16.40;94.00;;;;;;5000364;28;20068;-53
2021/07/19 02:44:10;;;;;;;13.32;8.63;;;16.40;94.00;;;;;;5008884;28;20048;-53
2021/07/19 02:46:37;;;;;;;16.50;10.05;;;16.40;94.00;;;;;;5008738;28;20136;-51
2021/07/19 02:49:09;;;;;;;15.63;8.95;;;16.40;94.00;;;;;;5006487;28;20048;-52
2021/07/19 02:51:35;;;;;;;17.00;9.98;;;16.40;94.00;;;;;;5012609;28;20458;-50
2021/07/19 02:54:03;;;;;;;16.05;9.65;;;16.40;94.00;;;;;;5011362;28;20046;-51
2021/07/19 02:56:35;;;;;;;17.30;9.15;;;16.50;94.00;;;;;;4999516;28;20050;-50
2021/07/19 02:59:02;;;;;;;19.30;10.32;;;16.50;94.10;;;;;;5010572;28;20065;-53
2021/07/19 03:01:31;;;;;;;16.45;9.13;;;16.50;94.00;;;;;;5010565;28;20510;-52
2021/07/19 03:03:59;;;;;;;19.48;9.55;;;16.50;94.00;;;;;;5004177;28;20088;-52
2021/07/19 03:06:33;;;;;;;17.73;9.27;;;16.50;94.00;;;;;;5006313;28;20113;-51
2021/07/19 03:09:02;;;;;;;17.42;10.18;;;16.50;94.10;;;;;;5010955;28;20502;-48
2021/07/19 03:11:40;;;;;;;20.27;10.25;;;16.50;94.10;;;;;;5007810;28;20039;-51
2021/07/19 03:14:11;;;;;;;16.48;9.40;;;16.50;94.20;;;;;;4999614;28;20422;-50
2021/07/19 03:16:38;;;;;;;17.20;9.65;;;16.50;94.10;;;;;;4994741;28;20042;-50
2021/07/19 03:19:08;;;;;;;12.93;9.25;;;16.50;94.10;;;;;;4996507;28;20064;-53
2021/07/19 03:21:37;;;;;;;19.67;9.95;;;16.60;94.20;;;;;;4997067;28;20062;-51
2021/07/19 03:24:05;;;;;;;18.20;10.00;;;16.60;94.20;;;;;;4998726;28;20050;-54
2021/07/19 03:26:31;;;;;;;16.38;9.40;;;16.60;94.20;;;;;;5013216;28;20410;-52
2021/07/19 03:28:58;;;;;;;21.13;9.63;;;16.60;94.20;;;;;;5015554;28;20038;-48
2021/07/19 03:31:24;;;;;;;18.92;9.52;;;16.60;94.20;;;;;;5012787;28;20042;-48
2021/07/19 03:33:52;;;;;;;18.70;10.00;;;16.60;94.20;;;;;;5012700;28;20058;-51
2021/07/19 03:36:19;;;;;;;20.80;10.00;;;16.60;94.20;;;;;;5014072;28;20136;-50
2021/07/19 03:38:47;;;;;;;17.27;10.07;;;16.50;94.20;;;;;;5012321;28;20041;-52
2021/07/19 03:41:14;;;;;;;20.13;9.85;;;16.60;94.30;;;;;;4998136;28;20471;-51
2021/07/19 03:43:42;;;;;;;16.42;10.43;;;16.60;94.30;;;;;;5014497;28;20045;-52
2021/07/19 03:46:08;;;;;;;18.30;10.30;;;16.60;94.30;;;;;;5014056;28;20038;-49
2021/07/19 03:48:35;;;;;;;15.68;9.20;;;16.60;94.30;;;;;;5014089;28;20057;-50
2021/07/19 03:51:01;;;;;;;17.20;10.15;;;16.60;94.40;;;;;;5012901;28;20502;-49
2021/07/19 03:53:27;;;;;;;18.77;10.48;;;16.60;94.40;;;;;;5013641;28;20069;-51
2021/07/19 03:55:53;;;;;;;15.85;10.23;;;16.60;94.40;;;;;;5013903;28;20053;-51
2021/07/19 03:58:20;;;;;;;19.33;9.73;;;16.60;94.40;;;;;;5009585;28;20847;-52
2021/07/19 04:00:46;;;;;;;22.58;10.13;;;16.60;94.30;;;;;;5025889;28;20069;-50
2021/07/19 04:03:18;;;;;;;15.98;9.52;;;16.60;94.40;;;;;;5010038;28;20030;-52
2021/07/19 04:05:45;;;;;;;;;;;16.60;94.40;;;;;;5013480;28;20065;-53
2021/07/19 04:08:11;;;;;;;20.92;10.02;;;16.60;94.60;;;;;;5000873;28;20539;-52
2021/07/19 04:10:38;;;;;;;17.75;9.73;;;16.60;94.30;;;;;;5005978;28;20080;-52
2021/07/19 04:13:06;;;;;;;19.05;10.25;;;16.50;94.40;;;;;;5016670;28;20091;-53
2021/07/19 04:15:34;;;;;;;21.95;11.05;;;16.60;94.40;;;;;;5009172;28;20048;-53
2021/07/19 04:18:00;;;;;;;16.67;9.85;;;16.60;94.40;;;;;;5003027;28;20422;-53
2021/07/19 04:20:27;;;;;;;18.63;10.05;;;16.60;94.40;;;;;;5002714;28;20053;-53
2021/07/19 04:22:55;;;;;;;15.77;10.07;;;16.50;94.40;;;;;;5015149;28;20042;-53
2021/07/19 04:25:20;;;;;;;18.83;9.50;;;16.50;94.40;;;;;;4997143;28;20247;-53
2021/07/19 04:27:46;;;;;;;18.58;10.48;;;16.60;94.50;;;;;;5013031;28;20099;-53
2021/07/19 04:30:13;;;;;;;19.17;10.15;;;16.60;94.50;;;;;;5010881;28;20053;-53
2021/07/19 04:32:43;;;;;;;16.52;9.57;;;16.60;94.50;;;;;;5016596;28;20038;-53
2021/07/19 04:35:17;;;;;;;17.42;9.90;;;16.70;94.50;;;;;;5020778;28;20046;-51
2021/07/19 04:37:43;;;;;;;18.98;10.02;;;16.70;94.50;;;;;;5013222;28;20446;-54
2021/07/19 04:40:09;;;;;;;19.52;9.68;;;16.70;94.50;;;;;;5011698;28;20046;-49
2021/07/19 04:42:39;;;;;;;18.58;8.73;;;16.70;94.50;;;;;;5013424;28;20456;-49
2021/07/19 04:45:06;;;;;;;16.65;9.65;;;16.70;94.40;;;;;;5010733;28;20048;-49
2021/07/19 04:47:31;;;;;;;19.63;9.35;;;16.70;94.40;;;;;;5010886;28;20133;-50
2021/07/19 04:49:57;;;;;;;16.02;8.60;;;16.70;94.40;;;;;;5012301;28;20479;-49
2021/07/19 04:52:23;;;;;;;17.80;8.98;;;16.70;94.40;;;;;;5011713;28;20042;-51
2021/07/19 04:54:50;;;;;;;16.33;9.55;;;16.70;94.30;;;;;;5024824;28;20035;-49
2021/07/19 04:57:18;;;;;;;16.75;8.82;;;16.70;94.30;;;;;;5015317;28;20050;-53
2021/07/19 04:59:50;;;;;;;18.33;9.07;;;16.80;94.30;;;;;;5012932;28;20091;-52
2021/07/19 05:02:20;;;;;;;15.50;8.75;;;16.80;94.30;;;;;;5013478;28;20053;-53
2021/07/19 05:04:48;;;;;;;19.42;9.88;;;16.80;94.20;;;;;;5009614;28;20403;-50
2021/07/19 05:07:18;;;;;;;15.07;9.00;;;16.80;94.20;;;;;;5019437;28;20103;-52
2021/07/19 05:09:46;;;;;;;18.25;9.23;;;16.80;94.20;;;;;;4998061;28;20120;-52
2021/07/19 05:12:16;;;;;;;16.20;8.77;;;16.80;94.10;;;;;;4994937;28;20042;-50
2021/07/19 05:14:44;;;;;;;16.67;8.90;;;16.80;94.00;;;;;;5010795;28;20041;-53
2021/07/19 05:17:15;;;;;;;16.25;8.55;;;16.80;94.00;;;;;;5007433;28;20062;-49
2021/07/19 05:19:42;;;;;;;16.33;9.25;;;16.90;94.00;;;;;;5011897;28;20053;-53
2021/07/19 05:22:13;;;;;;;18.98;9.50;;;16.90;94.00;;;;;;5022545;28;20046;-49
2021/07/19 05:24:39;;;;;;;17.35;9.27;;;16.90;93.90;;;;;;5014115;28;20053;-53
2021/07/19 05:27:06;;;;;;;19.55;9.40;;;16.90;93.80;;;;;;5010813;28;20050;-52
2021/07/19 05:29:36;;;;;;;17.10;9.77;;;17.00;93.60;;;;;;5012628;28;20088;-50
2021/07/19 05:32:03;;;;;;;18.80;10.35;;;16.90;93.60;;;;;;5010740;28;20034;-52
2021/07/19 05:34:29;;;;;;;18.00;10.18;;;16.90;93.50;;;;;;5009222;28;20057;-52
2021/07/19 05:36:55;;;;;;;17.65;9.90;;;16.90;93.50;;;;;;5015757;28;20415;-54
2021/07/19 05:39:21;;;;;;;15.20;9.30;;;16.90;93.50;;;;;;5000867;28;20049;-52
2021/07/19 05:41:47;;;;;;;17.20;9.52;;;16.90;93.50;;;;;;5015328;28;20426;-51
2021/07/19 05:44:13;;;;;;;18.90;9.50;;;16.90;93.50;;;;;;4986676;28;20045;-52
2021/07/19 05:46:39;;;;;;;16.52;9.15;;;16.90;93.40;;;;;;5020623;28;20553;-52
2021/07/19 05:49:05;;;;;;;19.10;9.77;;;16.90;93.40;;;;;;5011040;28;20049;-48
2021/07/19 05:51:31;;;;;;;19.27;10.05;;;16.90;93.40;;;;;;5003359;28;20046;-51
2021/07/19 05:54:03;;;;;;;18.13;10.02;;;16.90;93.30;;;;;;5010209;28;20151;-48
2021/07/19 05:56:31;;;;;;;15.45;9.55;;;16.90;93.40;;;;;;5006178;28;20492;-50
2021/07/19 05:59:13;;;;;;;14.25;9.50;;;16.90;93.40;;;;;;5013904;28;20044;-52
2021/07/19 06:01:39;;;;;;;19.05;9.98;;;16.90;93.40;;;;;;5018877;28;20634;-49
2021/07/19 06:04:05;;;;;;;17.63;9.65;;;17.00;93.40;;;;;;5016509;28;20132;-54
2021/07/19 06:06:31;;;;;;;19.02;9.43;;;17.00;93.30;;;;;;5005719;28;20129;-52
2021/07/19 06:08:56;;;;;;;18.42;10.45;;;17.00;93.30;;;;;;5016726;28;20522;-49
2021/07/19 06:11:22;;;;;;;14.95;9.07;;;17.00;93.40;;;;;;5014060;28;20114;-54
2021/07/19 06:13:48;;;;;;;19.90;9.80;;;17.00;93.30;;;;;;5010060;28;20046;-53
2021/07/19 06:16:13;;;;;;;19.75;9.43;;;17.00;93.30;;;;;;5002928;28;20034;-52
2021/07/19 06:18:39;;;;;;;18.27;9.45;;;17.00;93.10;;;;;;5011892;28;20572;-51
2021/07/19 06:21:06;;;;;;;16.08;9.10;;;17.00;93.10;;;;;;5009842;28;20042;-51
2021/07/19 06:23:32;;;;;;;15.90;8.85;;;17.00;92.90;;;;;;5007552;28;20081;-51
2021/07/19 06:25:57;;;;;;;20.75;8.52;;;17.00;93.00;;;;;;5020953;28;20211;-52
2021/07/19 06:28:23;;;;;;;17.17;8.77;;;17.10;93.00;;;;;;5013800;28;20049;-52
2021/07/19 06:30:51;;;;;;;19.15;9.75;;;17.20;92.80;;;;;;5010932;28;20037;-51
2021/07/19 06:33:16;;;;;;;17.75;8.88;;;17.40;92.20;;;;;;5030258;28;20041;-54
2021/07/19 06:35:43;;;;;;;16.88;8.75;;;17.20;92.40;;;;;;5023894;28;20049;-53
2021/07/19 06:38:09;;;;;;;14.07;8.25;;;17.20;92.60;;;;;;5028934;28;20037;-52
2021/07/19 06:40:35;;;;;;;17.75;7.78;;;17.20;92.50;;;;;;5024822;28;20041;-51
2021/07/19 06:43:01;;;;;;;15.48;7.85;;;17.20;92.60;;;;;;5021605;28;20053;-54
2021/07/19 06:45:28;;;;;;;17.10;7.80;;;17.30;91.80;;;;;;4992092;28;20537;-51
2021/07/19 06:47:53;;;;;;;17.30;7.50;;;17.30;91.60;;;;;;5016057;28;20046;-52
2021/07/19 06:50:19;;;;;;;22.20;8.73;;;17.30;91.60;;;;;;5019725;28;20068;-52
2021/07/19 06:52:45;;;;;;;19.50;7.97;;;17.20;92.00;;;;;;5011294;28;20038;-51
2021/07/19 06:55:14;;;;;;;14.25;7.03;;;17.20;92.20;;;;;;5012911;28;20494;-51
2021/07/19 06:57:40;;;;;;;18.80;8.40;;;17.30;92.00;;;;;;5011364;28;20046;-53
2021/07/19 07:00:07;;;;;;;15.35;8.02;;;17.30;92.00;;;;;;5013959;28;20061;-50
2021/07/19 07:02:35;;;;;;;17.65;6.97;;;17.30;92.00;;;;;;5014162;28;20034;-54
2021/07/19 07:05:02;;;;;;;17.60;7.28;;;17.20;92.20;;;;;;4992202;28;20049;-50
2021/07/19 07:07:30;;;;;;;13.25;7.10;;;17.30;92.00;;;;;;5013117;28;20437;-52
2021/07/19 07:09:57;;;;;;;17.00;6.60;;;17.20;92.10;;;;;;5010052;28;20065;-52
2021/07/19 07:12:26;;;;;;;14.38;6.47;;;17.30;92.20;;;;;;5010475;28;20069;-53
2021/07/19 07:14:52;;;;;;;15.43;6.55;;;17.30;92.00;;;;;;5009941;28;20049;-53
2021/07/19 07:17:17;;;;;;;16.10;6.05;;;17.20;91.60;;;;;;5011772;28;20041;-52
2021/07/19 07:19:43;;;;;;;20.27;7.03;;;17.20;91.50;;;;;;5013401;28;20034;-49
2021/07/19 07:22:09;;;;;;;14.40;6.18;;;17.20;91.50;;;;;;5022603;28;20033;-53
2021/07/19 07:24:40;;;;;;;14.60;6.32;;;17.30;91.50;;;;;;5018749;28;20041;-53
2021/07/19 07:27:10;;;;;;;11.35;6.20;;;17.30;91.60;;;;;;5016910;28;20042;-54
2021/07/19 07:29:36;;;;;;;13.23;6.00;;;17.50;90.90;;;;;;5017876;28;20053;-52
2021/07/19 07:32:03;;;;;;;14.38;5.78;;;17.40;90.90;;;;;;5011465;28;20049;-51
2021/07/19 07:34:28;;;;;;;11.50;5.60;;;17.50;90.80;;;;;;4997263;28;20046;-48
2021/07/19 07:36:54;;;;;;;14.98;5.63;;;17.50;90.40;;;;;;5017669;28;20107;-54
2021/07/19 07:39:20;;;;;;;14.30;5.68;;;17.40;90.70;;;;;;5008275;28;20037;-50
2021/07/19 07:41:46;;;;;;;14.65;6.30;;;17.40;90.90;;;;;;5012367;28;20044;-51
2021/07/19 07:44:12;;;;;;;14.90;6.55;;;17.50;90.40;;;;;;5012717;28;20491;-56
2021/07/19 07:46:39;;;;;;;15.23;6.32;;;17.40;90.60;;;;;;5012749;28;20719;-51
2021/07/19 07:49:05;;;;;;;17.58;6.60;;;17.50;90.30;;;;;;5010620;28;20073;-53
2021/07/19 07:51:31;;;;;;;11.25;6.20;;;17.50;89.90;;;;;;5006349;28;20034;-50
2021/07/19 07:53:58;;;;;;;16.80;6.38;;;17.50;90.20;;;;;;5001707;28;20551;-53
2021/07/19 07:56:25;;;;;;;16.23;6.18;;;17.60;90.00;;;;;;5009122;28;20147;-49
2021/07/19 07:58:50;;;;;;;14.75;5.97;;;17.60;90.10;;;;;;5013925;28;20076;-54
2021/07/19 08:01:16;;;;;;;16.30;6.18;;;17.70;90.20;;;;;;4999101;28;20081;-52
2021/07/19 08:03:42;;;;;;;17.55;6.57;;;17.80;88.80;;;;;;5014933;28;20510;-50
2021/07/19 08:06:07;;;;;;;12.50;6.63;;;17.80;89.60;;;;;;5009728;28;20073;-52
2021/07/19 08:08:33;;;;;;;14.23;6.22;;;17.80;90.00;;;;;;5012935;28;20037;-50
2021/07/19 08:10:59;;;;;;;16.60;5.88;;;17.80;90.30;;;;;;5014551;28;20513;-51
2021/07/19 08:13:25;;;;;;;14.77;6.40;;;17.90;90.10;;;;;;5013203;28;20048;-49
2021/07/19 08:15:50;;;;;;;14.43;6.40;;;18.00;90.20;;;;;;5014190;28;20454;-48
2021/07/19 08:18:16;;;;;;;13.65;5.97;;;18.00;89.10;;;;;;5017349;28;20103;-48
2021/07/19 08:20:43;;;;;;;12.98;6.22;;;18.10;88.00;;;;;;5014177;28;20084;-49
2021/07/19 08:23:09;;;;;;;13.65;6.28;;;18.10;88.70;;;;;;5009007;28;20046;-51
2021/07/19 08:25:35;;;;;;;12.00;6.20;;;18.00;88.60;;;;;;5008456;28;20053;-49
2021/07/19 08:28:01;;;;;;;11.63;6.18;;;18.00;88.50;;;;;;5010559;28;20049;-51
2021/07/19 08:30:31;;;;;;;15.65;6.93;;;18.00;88.50;;;;;;5016029;28;20030;-52
2021/07/19 08:32:58;;;;;;;13.27;6.43;;;18.00;87.90;;;;;;5015437;28;20073;-50
2021/07/19 08:35:25;;;;;;;14.40;6.07;;;18.00;88.00;;;;;;5017649;28;20046;-50
2021/07/19 08:37:53;;;;;;;13.95;6.93;;;18.00;88.20;;;;;;5014752;28;20406;-49
2021/07/19 08:40:20;;;;;;;15.35;6.65;;;18.20;86.80;;;;;;5010219;28;20050;-51
2021/07/19 08:42:46;;;;;;;15.10;6.20;;;18.10;87.40;;;;;;5014609;28;20429;-52
2021/07/19 08:45:13;;;;;;;12.95;6.13;;;18.20;87.60;;;;;;5013464;28;20089;-52
2021/07/19 08:47:40;;;;;;;14.85;6.53;;;18.10;87.80;;;;;;5007570;28;20038;-52
2021/07/19 08:50:09;;;;;;;13.00;5.85;;;18.30;86.80;;;;;;5010192;28;20056;-53
2021/07/19 08:52:36;;;;;;;11.73;6.30;;;18.40;85.10;;;;;;5014510;28;20042;-53
2021/07/19 08:55:10;;;;;;;13.68;6.40;;;18.40;86.40;;;;;;5011498;28;20072;-48
2021/07/19 08:57:40;;;;;;;16.08;6.53;;;18.30;86.90;;;;;;4998356;28;20042;-51
2021/07/19 09:00:09;;;;;;;11.38;6.25;;;18.40;87.20;;;;;;5001390;28;20045;-52
2021/07/19 09:02:36;;;;;;;14.32;6.35;;;18.30;87.10;;;;;;5014595;28;20414;-51
2021/07/19 09:05:02;;;;;;;12.98;5.88;;;18.30;86.90;;;;;;5022326;28;20077;-52
2021/07/19 09:07:27;;;;;;;12.50;5.97;;;18.30;86.50;;;;;;5003742;28;20072;-50
2021/07/19 09:09:53;;;;;;;11.90;6.07;;;18.30;86.20;;;;;;5013496;28;20410;-51
2021/07/19 09:12:32;;;;;;;14.23;5.93;;;18.40;86.60;;;;;;5013411;28;20065;-52
2021/07/19 09:14:58;;;;;;;13.85;6.65;;;18.40;86.10;;;;;;5019042;28;20037;-50
2021/07/19 09:17:26;;;;;;;11.43;5.65;;;18.40;86.40;;;;;;5015400;28;20644;-52
2021/07/19 09:19:52;;;;;;;13.63;5.95;;;18.50;86.40;;;;;;5003640;28;20513;-49
2021/07/19 09:22:30;;;;;;;11.00;6.00;;;18.50;86.30;;;;;;5007875;28;20042;-49
2021/07/19 09:25:17;;;;;;;11.05;5.65;;;18.50;85.40;;;;;;5010693;28;20045;-50
2021/07/19 09:28:04;;;;;;;11.05;5.60;;;18.60;85.40;;;;;;5009478;28;20096;-52
2021/07/19 09:30:33;;;;;;;10.95;5.60;;;18.70;85.10;;;;;;5005703;28;20053;-53
2021/07/19 09:33:03;;;;;;;10.95;5.60;;;18.80;84.00;;;;;;5013351;28;20289;-52
2021/07/19 09:35:34;;;;;;;10.68;5.85;;;18.90;80.90;;;;;;5005968;28;20061;-54
2021/07/19 09:38:05;;;;;;;12.23;5.15;;;19.10;78.20;;;;;;5006675;28;20045;-52
2021/07/19 09:40:33;;;;;;;11.40;5.80;;;19.10;78.60;;;;;;5012974;28;20065;-49
2021/07/19 09:43:15;;;;;;;13.73;5.95;;;19.10;80.00;;;;;;5013652;28;20459;-51
2021/07/19 09:45:54;;;;;;;8.88;5.53;;;19.20;80.80;;;;;;5016338;28;20064;-52
2021/07/19 09:48:21;;;;;;;11.30;6.15;;;19.20;81.00;;;;;;5009752;28;20045;-51
2021/07/19 09:50:52;;;;;;;14.10;5.65;;;19.20;81.40;;;;;;5008693;28;20050;-54
2021/07/19 09:53:32;;;;;;;14.35;5.72;;;19.10;81.50;;;;;;5011075;28;20046;-50
2021/07/19 09:56:08;;;;;;;10.38;6.03;;;19.20;81.20;;;;;;5006846;28;20042;-51
2021/07/19 09:58:34;;;;;;;11.55;5.70;;;19.20;80.30;;;;;;5014362;28;20133;-51
2021/07/19 10:01:00;;;;;;;9.98;5.90;;;19.30;80.70;;;;;;5017684;28;20081;-53
2021/07/19 10:03:30;;;;;;;11.65;5.35;;;19.40;80.10;;;;;;5019580;28;20040;-51
2021/07/19 10:06:07;;;;;;;9.70;5.40;;;19.40;79.10;;;;;;5008554;28;20042;-52
2021/07/19 10:08:33;;;;;;;16.17;6.72;;;19.40;77.70;;;;;;5017996;28;20509;-50
2021/07/19 10:10:59;;;;;;;9.73;5.45;;;19.50;76.40;;;;;;5008009;28;20400;-50
2021/07/19 10:13:35;;;;;;;10.10;5.85;;;19.40;78.20;;;;;;5017172;28;20192;-49
2021/07/19 10:16:04;;;;;;;11.20;5.53;;;19.40;79.10;;;;;;5010528;28;20042;-49
2021/07/19 10:18:33;;;;;;;10.07;5.57;;;19.30;77.70;;;;;;5017304;28;20044;-52
2021/07/19 10:20:59;;;;;;;9.93;5.50;;;19.20;78.40;;;;;;5010029;28;20042;-49
2021/07/19 10:23:25;;;;;;;11.02;5.85;;;19.20;79.00;;;;;;5010899;28;20046;-50
2021/07/19 10:25:53;;;;;;;9.50;5.60;;;19.10;79.30;;;;;;5013977;28;20049;-49
2021/07/19 10:28:19;;;;;;;10.13;5.45;;;19.10;79.60;;;;;;5014566;28;20124;-49
2021/07/19 10:30:45;;;;;;;11.85;5.65;;;19.20;79.40;;;;;;5022706;28;20136;-49
2021/07/19 10:33:10;;;;;;;11.57;5.80;;;19.20;78.80;;;;;;5014127;28;20049;-51
2021/07/19 10:35:36;;;;;;;11.85;6.32;;;19.30;77.10;;;;;;5014602;28;20044;-52
2021/07/19 10:38:10;;;;;;;13.45;6.78;;;19.50;76.70;;;;;;5014115;28;20391;-51
2021/07/19 10:40:38;;;;;;;11.18;5.93;;;19.60;76.50;;;;;;5018133;28;20115;-54
2021/07/19 10:43:15;;;;;;;10.23;6.30;;;19.80;73.30;;;;;;5017650;28;20038;-49
2021/07/19 10:45:54;;;;;;;10.43;6.55;;;19.80;73.40;;;;;;5014505;28;20640;-52
2021/07/19 10:48:29;;;;;;;13.18;6.68;;;19.70;76.10;;;;;;5013298;28;20041;-50
2021/07/19 10:50:57;;;;;;;13.27;6.50;;;19.70;76.60;;;;;;5007614;28;20042;-53
2021/07/19 10:53:27;;;;;;;14.60;6.68;;;19.80;75.30;;;;;;5016382;28;20046;-52
2021/07/19 10:56:01;;;;;;;9.98;6.03;;;19.80;75.40;;;;;;5015770;28;20163;-54
2021/07/19 10:58:43;;;;;;;11.73;6.32;;;19.90;74.50;;;;;;5014206;28;20100;-54
2021/07/19 11:01:29;;;;;;;11.27;6.38;;;19.90;74.90;;;;;;5008677;28;20065;-51
2021/07/19 11:03:58;;;;;;;11.25;6.30;;;19.80;74.90;;;;;;5004960;28;20029;-52
2021/07/19 11:06:38;;;;;;;13.35;6.72;;;19.80;74.80;;;;;;5013367;28;20049;-54
2021/07/19 11:09:07;;;;;;;11.95;6.47;;;19.90;73.70;;;;;;4998947;28;20095;-53
2021/07/19 11:11:35;;;;;;;12.80;6.43;;;20.00;75.40;;;;;;5012884;28;20046;-51
2021/07/19 11:14:04;;;;;;;12.93;6.43;;;20.20;77.20;;;;;;5012322;28;20483;-51
2021/07/19 11:16:50;;;;;;;13.20;6.38;;;20.20;74.90;;;;;;5006125;28;20046;-52
2021/07/19 11:19:17;;;;;;;14.23;6.95;;;20.10;74.10;;;;;;5011405;28;20527;-53
2021/07/19 11:21:44;;;;;;;12.05;6.32;;;20.20;73.70;;;;;;5016991;28;20109;-51
2021/07/19 11:24:19;;;;;;;10.77;6.53;;;20.20;71.10;;;;;;5012905;28;20454;-51
2021/07/19 11:26:53;;;;;;;13.40;6.70;;;20.20;73.40;;;;;;5009546;28;20104;-54
2021/07/19 11:29:33;;;;;;;9.95;6.15;;;20.20;74.60;;;;;;5017192;28;20050;-52
2021/07/19 11:32:22;;;;;;;12.75;6.78;;;20.40;73.90;;;;;;5008154;28;20030;-51
2021/07/19 11:34:49;;;;;;;19.10;7.18;;;20.50;73.40;;;;;;5017502;28;20038;-49
2021/07/19 11:37:18;;;;;;;11.40;6.53;;;20.70;74.30;;;;;;5016958;28;20088;-51
2021/07/19 11:39:50;;;;;;;12.35;6.50;;;20.80;74.80;;;;;;5025110;28;20129;-54
2021/07/19 11:42:33;;;;;;;;;;;20.90;75.10;;;;;;5017560;28;20042;-54
2021/07/19 11:45:06;;;;;;;14.20;6.90;;;20.80;73.70;;;;;;5022342;28;19917;-51
2021/07/19 11:47:39;;;;;;;14.30;6.30;;;20.70;75.40;;;;;;5019551;28;20524;-50
2021/07/19 11:50:05;;;;;;;11.85;6.13;;;20.70;75.80;;;;;;5020076;28;20064;-52
2021/07/19 11:52:31;;;;;;;12.60;6.45;;;20.70;75.40;;;;;;5032617;28;20037;-53
2021/07/19 11:54:58;;;;;;;10.88;6.13;;;20.70;74.90;;;;;;5028699;28;20038;-53
2021/07/19 11:57:26;;;;;;;10.68;5.90;;;20.80;74.60;;;;;;5025749;28;20068;-52
2021/07/19 11:59:52;;;;;;;12.05;6.45;;;20.90;73.30;;;;;;5004569;28;20094;-51
2021/07/19 12:02:27;;;;;;;12.93;6.00;;;20.80;74.20;;;;;;5021630;28;20497;-51
2021/07/19 12:04:54;;;;;;;13.68;5.60;;;20.70;71.50;;;;;;5003375;28;20233;-52
2021/07/19 12:07:25;;;;;;;12.32;5.75;;;20.50;73.10;;;;;;5015454;28;20042;-54
2021/07/19 12:10:01;;;;;;;10.50;6.00;;;20.50;71.70;;;;;;5015639;28;20447;-50
2021/07/19 12:12:28;;;;;;;10.80;5.70;;;20.40;72.70;;;;;;5020280;28;20096;-52
2021/07/19 12:15:01;;;;;;;9.90;5.03;;;20.50;74.20;;;;;;5016157;28;20041;-50
2021/07/19 12:17:32;;;;;;;8.75;5.45;;;20.70;70.00;;;;;;5014662;28;20041;-53
2021/07/19 12:19:58;;;;;;;11.75;5.10;;;20.90;69.00;;;;;;5019054;28;20041;-51
2021/07/19 12:22:24;;;;;;;9.90;5.15;;;20.60;71.00;;;;;;5020154;28;20037;-51
2021/07/19 12:24:54;;;;;;;10.60;5.63;;;20.60;69.50;;;;;;4999448;28;20045;-53
2021/07/19 12:27:19;;;;;;;8.95;5.35;;;20.50;69.60;;;;;;5029032;28;20517;-54
2021/07/19 12:29:45;;;;;;;11.43;5.25;;;20.60;68.50;;;;;;5029016;28;20061;-51
2021/07/19 12:32:11;;;;;;;10.38;5.00;;;20.60;69.40;;;;;;5027912;28;20045;-51
2021/07/19 12:34:42;;;;;;;7.32;4.82;;;20.50;69.50;;;;;;5023570;28;20040;-51
2021/07/19 12:37:10;;;;;;;10.02;4.97;;;20.40;69.00;;;;;;5024539;28;20048;-52
2021/07/19 12:39:40;;;;;;;8.90;5.30;;;20.30;69.60;;;;;;5016663;28;20072;-51
2021/07/19 12:42:14;;;;;;;10.68;5.53;;;20.50;70.50;;;;;;5022429;28;20073;-53
2021/07/19 12:44:45;;;;;;;8.57;5.30;;;20.60;70.30;;;;;;5031673;28;20109;-50